Time;durP1;ratioP1;P1;durP2;ratioP2;P2;SDS_P1;SDS_P2;PMS_P1;PMS_P2;Temp;Humidity;BMP_temperature;BMP_pressure;BME280_temperature;BME280_humidity;BME280_pressure;Samples;Min_cycle;Max_cycle;Signal;HPM_P1;HPM_P2
2022/12/13 00:01:30;;;;;;;18.00;10.90;;;;;;;-0.73;73.33;99817.08;2039505;87;29717;-67
2022/12/13 00:04:31;;;;;;;;;;;;;;;-0.73;73.27;99813.13;2041738;87;27747;-75
2022/12/13 00:07:34;;;;;;;19.12;11.73;;;;;;;-0.74;73.33;99813.55;2044841;86;29431;-73
2022/12/13 00:10:36;;;;;;;17.20;11.83;;;;;;;-0.74;73.47;99812.70;2045978;87;32105;-76
2022/12/13 00:13:38;;;;;;;16.73;11.15;;;;;;;-0.74;73.39;99814.02;2046035;87;33844;-75
2022/12/13 00:16:40;;;;;;;16.00;11.03;;;;;;;-0.73;73.31;99809.18;2045520;87;29749;-74
2022/12/13 00:19:43;;;;;;;16.52;11.28;;;;;;;-0.74;73.39;99808.30;2045666;86;28346;-74
2022/12/13 00:22:45;;;;;;;17.02;11.30;;;;;;;-0.75;73.31;99808.33;2045757;87;28462;-74
2022/12/13 00:25:47;;;;;;;19.05;12.37;;;;;;;-0.76;73.24;99814.05;2045866;87;31396;-74
2022/12/13 00:28:50;;;;;;;21.60;12.43;;;;;;;-0.77;73.25;99812.30;2045917;87;33036;-74
2022/12/13 00:31:51;;;;;;;19.25;13.00;;;;;;;-0.78;73.41;99815.36;2045968;86;29882;-72
2022/12/13 00:34:53;;;;;;;18.90;12.55;;;;;;;-0.74;73.45;99815.33;2046261;87;27652;-74
2022/12/13 00:37:57;;;;;;;16.82;11.83;;;;;;;-0.76;73.34;99812.73;2046056;87;28465;-71
2022/12/13 00:40:59;;;;;;;19.27;11.90;;;;;;;-0.76;73.32;99810.10;2046179;87;32411;-74
2022/12/13 00:44:02;;;;;;;16.55;11.57;;;;;;;-0.75;73.39;99811.84;2045790;87;33404;-72
2022/12/13 00:47:03;;;;;;;18.77;12.28;;;;;;;-0.78;73.32;99818.45;2045831;87;29691;-72
2022/12/13 00:50:09;;;;;;;19.05;12.15;;;;;;;-0.79;73.38;99812.30;2045826;87;27752;-74
2022/12/13 00:53:11;;;;;;;19.40;12.65;;;;;;;-0.79;73.42;99816.70;2045979;87;29500;-75
2022/12/13 00:56:17;;;;;;;19.35;11.93;;;;;;;-0.80;73.48;99823.70;2046044;87;31470;-70
2022/12/13 00:59:18;;;;;;;21.73;12.10;;;;;;;-0.78;73.58;99817.98;2045994;86;33035;-72
2022/12/13 01:02:20;;;;;;;19.95;12.25;;;;;;;-0.78;73.51;99821.08;2045982;87;30629;-75
2022/12/13 01:05:22;;;;;;;18.52;12.50;;;;;;;-0.80;73.48;99822.39;2046057;87;27701;-72
2022/12/13 01:08:23;;;;;;;19.30;12.18;;;;;;;-0.78;73.53;99827.65;2046009;87;28716;-67
2022/12/13 01:11:25;;;;;;;18.25;12.20;;;;;;;-0.78;73.62;99829.83;2046290;87;31400;-75
2022/12/13 01:14:28;;;;;;;18.75;11.75;;;;;;;-0.79;73.58;99824.59;2046106;86;33786;-73
2022/12/13 01:17:29;;;;;;;22.27;12.90;;;;;;;-0.79;73.61;99825.45;2045940;87;29543;-74
2022/12/13 01:20:33;;;;;;;21.02;12.10;;;;;;;-0.79;73.51;99825.91;2046019;87;27740;-72
2022/12/13 01:23:35;;;;;;;16.75;11.45;;;;;;;-0.82;73.55;99822.84;2046306;87;28730;-74
2022/12/13 01:26:37;;;;;;;18.12;11.93;;;;;;;-0.82;73.39;99820.22;2045956;86;32180;-69
2022/12/13 01:29:38;;;;;;;19.92;11.53;;;;;;;-0.84;73.49;99823.76;2046287;86;33061;-75
2022/12/13 01:32:40;;;;;;;19.90;11.75;;;;;;;-0.84;73.53;99819.39;2045984;87;30487;-71
2022/12/13 01:35:42;;;;;;;15.88;11.30;;;;;;;-0.85;73.56;99815.02;2046414;87;27656;-75
2022/12/13 01:38:43;;;;;;;21.65;12.88;;;;;;;-0.86;73.47;99818.53;2046633;87;28594;-75
2022/12/13 01:41:49;;;;;;;16.02;10.80;;;;;;;-0.88;73.35;99822.05;2046234;86;31480;-75
2022/12/13 01:45:05;;;;;;;16.97;10.85;;;;;;;-0.90;73.36;99816.81;2046108;86;33020;-71
2022/12/13 01:48:14;;;;;;;16.52;11.10;;;;;;;-0.97;73.19;99822.58;2045947;87;30675;-70
2022/12/13 01:51:18;;;;;;;16.37;11.33;;;;;;;-1.00;73.21;99822.61;2046148;86;27617;-71
2022/12/13 01:54:24;;;;;;;18.07;9.85;;;;;;;-1.03;73.34;99831.83;1981556;89;28629;-74
2022/12/13 01:57:26;;;;;;;16.80;11.08;;;;;;;-1.05;73.30;99831.44;1981276;89;31820;-69
2022/12/13 02:00:28;;;;;;;15.28;10.32;;;;;;;-1.07;73.36;99834.94;1981098;89;34161;-71
2022/12/13 02:03:30;;;;;;;15.38;10.60;;;;;;;-1.09;73.37;99833.23;1981343;89;29719;-72
2022/12/13 02:06:39;;;;;;;18.37;11.05;;;;;;;-1.08;73.46;99837.60;1979246;89;27697;-70
2022/12/13 02:09:41;;;;;;;15.25;10.38;;;;;;;-1.10;73.55;99831.48;1974917;90;28766;-73
2022/12/13 02:12:44;;;;;;;18.90;11.20;;;;;;;-1.10;73.42;99834.11;1974710;90;32409;-72
2022/12/13 02:15:54;;;;;;;14.50;9.50;;;;;;;-1.12;73.37;99837.19;1974752;90;33851;-74
2022/12/13 02:19:13;;;;;;;16.32;10.38;;;;;;;-1.13;73.34;99842.02;1954536;91;29349;-72
2022/12/13 02:23:05;;;;;;;14.23;9.68;;;;;;;-1.14;73.29;99839.81;1886437;92;27925;-73
2022/12/13 02:26:34;;;;;;;15.93;10.25;;;;;;;-1.16;73.19;99838.98;1931884;92;29074;-67
2022/12/13 02:30:39;;;;;;;17.17;10.23;;;;;;;-1.22;73.09;99844.28;1901187;93;31160;-72
2022/12/13 02:34:08;;;;;;;14.40;9.80;;;;;;;-1.27;73.01;99839.50;1900498;93;33810;-73
2022/12/13 02:37:31;;;;;;;13.45;8.55;;;;;;;-1.31;72.89;99849.17;1871399;95;29382;-73
2022/12/13 02:40:46;;;;;;;16.55;10.15;;;;;;;-1.35;72.86;99854.48;1900899;93;27809;-73
2022/12/13 02:44:05;;;;;;;18.32;10.38;;;;;;;-1.38;73.02;99844.84;1902576;92;28719;-74
2022/12/13 02:47:22;;;;;;;19.73;10.15;;;;;;;-1.41;72.83;99847.52;1900701;93;32206;-71
2022/12/13 02:50:25;;;;;;;16.62;9.63;;;;;;;-1.43;72.79;99846.66;1900884;93;33330;-68
2022/12/13 02:53:27;;;;;;;18.17;10.85;;;;;;;-1.48;72.69;99852.38;1900670;93;29351;-72
2022/12/13 02:56:31;;;;;;;16.90;9.33;;;;;;;-1.54;72.64;99859.41;1897254;92;27784;-71
2022/12/13 02:59:36;;;;;;;16.27;9.63;;;;;;;-1.59;72.51;99861.64;1923709;91;30022;-70
2022/12/13 03:03:19;;;;;;;17.50;9.73;;;;;;;-1.67;72.51;99856.91;1946110;91;31072;-71
2022/12/13 03:06:46;;;;;;;14.43;9.75;;;;;;;-1.78;72.38;99852.58;1955667;88;32997;-73
2022/12/13 03:10:03;;;;;;;19.20;11.10;;;;;;;-1.88;72.24;99852.22;1974011;90;30589;-67
2022/12/13 03:16:40;;;;;;;18.60;10.30;;;;;;;-2.12;72.26;99859.33;2011727;88;28678;-64
2022/12/13 03:19:42;;;;;;;20.65;10.00;;;;;;;-2.24;72.09;99857.66;1979290;90;31009;-73
2022/12/13 03:22:44;;;;;;;17.07;10.13;;;;;;;-2.35;72.19;99862.95;1987658;88;34165;-70
2022/12/13 03:25:56;;;;;;;19.32;10.55;;;;;;;-2.43;72.26;99859.92;2012745;88;30255;-73
2022/12/13 03:28:58;;;;;;;18.32;10.53;;;;;;;-2.52;72.26;99860.37;2011293;88;27659;-74
2022/12/13 03:31:59;;;;;;;19.32;10.20;;;;;;;-2.62;72.30;99861.28;1979170;89;28639;-73
2022/12/13 03:35:01;;;;;;;18.52;11.08;;;;;;;-2.72;72.30;99860.44;2011089;88;31623;-73
2022/12/13 03:38:04;;;;;;;19.32;11.43;;;;;;;-2.82;72.33;99863.52;1978935;90;34295;-70
2022/12/13 03:41:12;;;;;;;22.32;12.63;;;;;;;-2.92;72.42;99865.28;2011245;88;29713;-63
2022/12/13 03:44:22;;;;;;;19.52;10.68;;;;;;;-3.00;72.44;99870.98;2011994;88;28294;-69
2022/12/13 03:47:26;;;;;;;17.73;10.28;;;;;;;-3.07;72.56;99869.23;1979109;89;28687;-72
2022/12/13 03:50:47;;;;;;;17.52;11.03;;;;;;;-3.15;72.56;99867.06;2012727;88;31194;-72
2022/12/13 03:53:50;;;;;;;20.88;12.13;;;;;;;-3.24;72.62;99864.87;2010452;87;27904;-70
2022/12/13 03:56:52;;;;;;;21.62;11.57;;;;;;;-3.33;72.63;99862.69;2011488;88;29793;-72
2022/12/13 03:59:54;;;;;;;19.07;11.40;;;;;;;-3.41;72.73;99868.81;1979583;90;27657;-72
2022/12/13 04:02:55;;;;;;;22.15;11.83;;;;;;;-3.49;72.76;99861.38;1979447;89;28811;-73
2022/12/13 04:05:57;;;;;;;19.32;10.93;;;;;;;-3.56;72.86;99870.98;2006204;88;31440;-72
2022/12/13 04:08:59;;;;;;;18.98;11.45;;;;;;;-3.63;72.89;99867.91;2036219;86;34160;-70
2022/12/13 04:15:21;;;;;;;22.90;12.73;;;;;;;-3.75;73.03;99870.50;2039588;87;27637;-69
2022/12/13 04:18:22;;;;;;;24.00;12.73;;;;;;;-3.83;73.04;99867.88;2018437;88;30052;-71
2022/12/13 04:21:24;;;;;;;30.32;16.00;;;;;;;-3.88;73.13;99875.72;2039216;87;31175;-72
2022/12/13 04:24:26;;;;;;;31.80;16.95;;;;;;;-3.93;73.25;99867.43;2018619;88;33818;-72
2022/12/13 04:27:28;;;;;;;32.90;16.70;;;;;;;-3.98;73.33;99877.44;2039785;87;29673;-73
2022/12/13 04:30:29;;;;;;;28.98;14.38;;;;;;;-3.99;73.44;99878.76;2018990;88;27616;-72
2022/12/13 04:33:32;;;;;;;31.85;16.77;;;;;;;-4.02;73.56;99874.82;2039328;87;29036;-73
2022/12/13 04:36:34;;;;;;;32.53;16.12;;;;;;;-4.01;73.80;99879.19;2039078;86;32341;-72
2022/12/13 04:39:35;;;;;;;25.30;14.03;;;;;;;-4.00;73.92;99877.87;2004996;88;33477;-73
2022/12/13 04:42:37;;;;;;;22.90;13.55;;;;;;;-3.94;74.10;99880.93;2039504;87;30456;-71
2022/12/13 04:45:38;;;;;;;21.97;12.10;;;;;;;-3.88;74.27;99877.45;2039375;87;27685;-71
2022/12/13 04:48:41;;;;;;;22.30;12.70;;;;;;;-3.81;74.37;99881.84;2039543;87;28079;-72
2022/12/13 04:51:42;;;;;;;23.75;13.03;;;;;;;-3.74;74.48;99878.38;2039504;87;31077;-71
2022/12/13 04:54:44;;;;;;;25.55;14.15;;;;;;;-3.64;74.65;99873.14;2039315;87;33569;-71
2022/12/13 04:57:46;;;;;;;25.30;14.18;;;;;;;-3.55;74.81;99871.42;2039590;87;30420;-71
2022/12/13 05:00:48;;;;;;;28.10;15.68;;;;;;;-3.46;74.92;99866.63;2039216;87;27614;-69
2022/12/13 05:03:50;;;;;;;28.55;15.78;;;;;;;-3.34;74.91;99871.42;2039884;87;29404;-72
2022/12/13 05:06:52;;;;;;;30.50;18.12;;;;;;;-3.24;74.89;99875.35;2039856;87;31080;-72
2022/12/13 05:09:53;;;;;;;37.88;22.05;;;;;;;-3.13;74.94;99873.15;2045989;87;32839;-72
2022/12/13 05:12:55;;;;;;;59.53;33.78;;;;;;;-3.04;74.92;99874.47;2046103;86;29891;-71
2022/12/13 05:15:59;;;;;;;33.53;18.32;;;;;;;-2.96;75.00;99870.08;2020482;87;27673;-67
2022/12/13 05:19:01;;;;;;;21.60;11.60;;;;;;;-2.87;74.95;99865.71;2011503;88;29495;-68
2022/12/13 05:22:02;;;;;;;29.45;16.12;;;;;;;-2.80;74.91;99867.01;2045409;87;32398;-67
2022/12/13 05:25:05;;;;;;;24.37;14.03;;;;;;;-2.72;75.02;99864.79;2045828;86;32982;-70
2022/12/13 05:28:07;;;;;;;26.35;15.53;;;;;;;-2.64;75.04;99867.83;2045838;86;30140;-70
2022/12/13 05:31:11;;;;;;;19.52;11.50;;;;;;;-2.58;74.97;99871.31;2045800;87;27729;-70
2022/12/13 05:34:13;;;;;;;22.02;12.68;;;;;;;-2.52;74.90;99868.23;2046002;87;29511;-69
2022/12/13 05:37:15;;;;;;;22.65;12.15;;;;;;;-2.47;74.71;99868.21;2045634;87;30995;-72
2022/12/13 05:40:17;;;;;;;20.82;11.50;;;;;;;-2.41;74.86;99869.97;2045948;86;32990;-71
2022/12/13 05:43:18;;;;;;;19.62;11.35;;;;;;;-2.36;74.81;99867.76;2046120;86;29473;-69
2022/12/13 05:46:20;;;;;;;18.20;10.80;;;;;;;-2.33;74.59;99874.31;2045946;86;28257;-71
2022/12/13 05:49:21;;;;;;;19.40;12.47;;;;;;;-2.29;74.55;99874.70;2046304;87;29670;-71
2022/12/13 05:52:23;;;;;;;20.23;12.53;;;;;;;-2.25;74.62;99872.97;2045696;87;31085;-73
2022/12/13 05:55:24;;;;;;;22.15;13.50;;;;;;;-2.20;74.59;99872.48;2046058;87;33401;-71
2022/12/13 05:58:26;;;;;;;23.75;13.83;;;;;;;-2.17;74.60;99876.41;2045700;87;29161;-68
2022/12/13 06:01:28;;;;;;;22.35;13.32;;;;;;;-2.13;74.52;99875.95;2045905;87;27717;-72
2022/12/13 06:04:30;;;;;;;24.18;13.70;;;;;;;-2.11;74.44;99876.82;2046307;86;29040;-69
2022/12/13 06:07:32;;;;;;;27.82;14.38;;;;;;;-2.10;74.58;99876.39;2044619;87;31077;-71
2022/12/13 06:10:34;;;;;;;27.22;14.58;;;;;;;-2.07;74.56;99879.87;2039724;87;33358;-70
2022/12/13 06:13:35;;;;;;;26.42;16.25;;;;;;;-2.09;74.37;99881.63;2037870;87;29018;-70
2022/12/13 06:16:38;;;;;;;28.30;17.17;;;;;;;-2.08;74.45;99882.52;2005212;88;27620;-71
2022/12/13 06:19:40;;;;;;;29.15;15.78;;;;;;;-2.07;74.56;99874.62;2005024;88;29470;-68
2022/12/13 06:22:41;;;;;;;26.75;14.68;;;;;;;-2.04;74.71;99886.84;2005544;87;32432;-71
2022/12/13 06:25:43;;;;;;;25.75;14.98;;;;;;;-2.03;74.62;99876.78;2005061;88;33357;-69
2022/12/13 06:28:45;;;;;;;26.68;15.78;;;;;;;-2.02;74.58;99889.92;2005102;88;29271;-70
2022/12/13 06:31:46;;;;;;;24.60;15.10;;;;;;;-2.05;74.59;99885.98;2005249;88;27702;-70
2022/12/13 06:34:48;;;;;;;26.15;15.85;;;;;;;-2.03;74.63;99883.34;2005129;88;29844;-70
2022/12/13 06:37:53;;;;;;;25.15;14.55;;;;;;;-2.05;74.56;99887.72;2005287;88;32059;-71
2022/12/13 06:40:54;;;;;;;26.87;16.23;;;;;;;-2.03;74.67;99888.17;2005168;88;33517;-72
2022/12/13 06:43:57;;;;;;;27.55;15.45;;;;;;;-2.04;74.67;99890.36;2005091;88;30495;-73
2022/12/13 06:47:00;;;;;;;22.65;14.85;;;;;;;-2.03;74.92;99889.48;2005533;88;27706;-69
2022/12/13 06:50:02;;;;;;;22.13;13.40;;;;;;;-2.01;74.80;99895.60;2004687;88;29941;-71
2022/12/13 06:53:03;;;;;;;19.98;12.93;;;;;;;-1.99;74.82;99896.89;2027467;87;30300;-69
2022/12/13 06:56:10;;;;;;;23.52;14.07;;;;;;;-1.97;74.83;99892.94;2039344;87;34110;-71
2022/12/13 06:59:12;;;;;;;21.12;12.35;;;;;;;-1.98;74.74;99897.33;2039566;87;29341;-71
2022/12/13 07:02:14;;;;;;;23.00;13.75;;;;;;;-1.97;74.67;99911.31;2039416;87;28055;-66
2022/12/13 07:05:16;;;;;;;19.62;11.95;;;;;;;-1.99;74.56;99915.27;2039113;87;29162;-71
2022/12/13 07:08:18;;;;;;;21.57;13.85;;;;;;;-2.00;74.51;99910.89;2041025;87;31420;-69
2022/12/13 07:11:24;;;;;;;21.23;12.25;;;;;;;-1.99;74.72;99917.47;2045506;87;34195;-71
2022/12/13 07:14:26;;;;;;;20.05;11.12;;;;;;;-1.97;74.64;99915.24;2040087;86;29722;-70
2022/12/13 07:17:28;;;;;;;19.62;11.38;;;;;;;-1.95;74.54;99917.00;2045700;87;28211;-65
2022/12/13 07:20:30;;;;;;;20.00;13.00;;;;;;;-1.93;74.54;99917.87;2046130;86;28580;-70
2022/12/13 07:23:32;;;;;;;23.80;15.08;;;;;;;-1.91;74.57;99917.85;2045805;87;31468;-70
2022/12/13 07:26:33;;;;;;;25.90;15.58;;;;;;;-1.88;74.65;99920.02;2025174;87;33881;-70
2022/12/13 07:29:35;;;;;;;21.12;12.23;;;;;;;-1.83;74.71;99920.02;2046061;87;29705;-71
2022/12/13 07:32:36;;;;;;;21.23;13.25;;;;;;;-1.78;74.68;99920.84;2046226;87;27630;-70
2022/12/13 07:35:38;;;;;;;20.12;12.93;;;;;;;-1.72;74.84;99922.56;2046200;87;29072;-71
2022/12/13 07:38:40;;;;;;;21.00;13.43;;;;;;;-1.65;74.94;99923.43;2046065;87;32199;-71
2022/12/13 07:41:41;;;;;;;21.60;13.62;;;;;;;-1.61;74.91;99922.08;2045888;86;32916;-70
2022/12/13 07:44:43;;;;;;;24.20;14.18;;;;;;;-1.54;74.90;99925.08;2045814;87;29505;-69
2022/12/13 07:47:44;;;;;;;26.55;14.45;;;;;;;-1.49;74.85;99927.70;2046208;86;27727;-69
2022/12/13 07:50:46;;;;;;;23.02;14.30;;;;;;;-1.43;74.93;99928.96;2045880;87;29972;-71
2022/12/13 07:53:48;;;;;;;25.40;15.75;;;;;;;-1.36;74.90;99923.67;2046143;87;31819;-71
2022/12/13 07:56:50;;;;;;;29.70;17.45;;;;;;;-1.30;74.84;99925.81;2045765;87;34212;-71
2022/12/13 07:59:52;;;;;;;29.55;18.32;;;;;;;-1.25;75.02;99931.92;2046210;86;30516;-72
2022/12/13 08:02:53;;;;;;;31.48;18.45;;;;;;;-1.19;75.00;99934.94;2046001;87;27671;-72
2022/12/13 08:06:09;;;;;;;31.87;17.62;;;;;;;-1.15;74.87;99929.21;2045710;86;27643;-72
2022/12/13 08:09:10;;;;;;;;;;;;;;;-1.12;74.97;99930.05;2045259;87;30965;-69
2022/12/13 08:12:12;;;;;;;31.50;16.95;;;;;;;-1.09;74.77;99923.91;2004998;88;34068;-67
2022/12/13 08:15:14;;;;;;;31.33;17.75;;;;;;;-1.09;74.62;99927.86;2037689;87;29156;-71
2022/12/13 08:18:16;;;;;;;26.25;16.25;;;;;;;-1.06;74.66;99927.80;2039407;87;27665;-68
2022/12/13 08:21:18;;;;;;;26.95;16.42;;;;;;;-1.04;74.37;99923.88;2039374;86;29895;-69
2022/12/13 08:24:20;;;;;;;25.72;16.45;;;;;;;-1.02;74.48;99926.91;2039620;87;32206;-73
2022/12/13 08:27:21;;;;;;;32.15;20.25;;;;;;;-0.94;74.78;99926.41;2039634;87;34105;-69
2022/12/13 08:30:23;;;;;;;31.93;18.85;;;;;;;-0.88;74.37;99928.54;2014067;87;29771;-73
2022/12/13 08:33:25;;;;;;;29.07;16.42;;;;;;;-0.83;74.16;99928.95;2037349;87;27698;-72
2022/12/13 08:36:27;;;;;;;26.35;15.38;;;;;;;-0.79;74.10;99931.96;2000914;89;29937;-72
2022/12/13 08:39:33;;;;;;;25.55;14.43;;;;;;;-0.77;73.99;99931.51;2001165;89;32208;-74
2022/12/13 08:42:35;;;;;;;25.90;15.00;;;;;;;-0.72;73.83;99943.30;2036614;87;32694;-65
2022/12/13 08:45:37;;;;;;;29.12;14.50;;;;;;;-0.67;73.79;99932.76;2004540;87;31488;-69
2022/12/13 08:48:38;;;;;;;31.20;17.62;;;;;;;-0.59;73.82;99934.85;2005421;88;27664;-72
2022/12/13 08:51:40;;;;;;;25.43;14.80;;;;;;;-0.54;73.55;99938.75;2005112;88;28429;-75
2022/12/13 08:54:43;;;;;;;27.15;15.72;;;;;;;-0.50;73.59;99937.84;2005048;88;31761;-77
2022/12/13 08:57:45;;;;;;;24.15;15.63;;;;;;;-0.45;73.57;99939.98;2005078;88;33795;-73
2022/12/13 09:00:47;;;;;;;35.88;17.30;;;;;;;-0.38;73.49;99936.84;2004774;88;30695;-74
2022/12/13 09:03:48;;;;;;;26.75;16.82;;;;;;;-0.32;73.30;99939.39;2005361;88;27705;-74
2022/12/13 09:06:50;;;;;;;24.07;14.18;;;;;;;-0.31;73.00;99942.02;2001968;87;29146;-71
2022/12/13 09:09:52;;;;;;;20.95;12.95;;;;;;;-0.33;72.70;99941.63;2038824;87;31424;-70
2022/12/13 09:12:55;;;;;;;22.75;13.18;;;;;;;-0.33;72.82;99943.80;2043725;85;34173;-72
2022/12/13 09:15:58;;;;;;;22.13;13.15;;;;;;;-0.31;72.56;99938.08;2045624;86;29803;-74
2022/12/13 09:18:59;;;;;;;20.30;13.38;;;;;;;-0.30;72.88;99946.83;2074901;84;28267;-64
2022/12/13 09:22:01;;;;;;;22.00;12.80;;;;;;;-0.26;72.85;99957.77;2045694;86;29601;-70
2022/12/13 09:25:06;;;;;;;20.90;13.08;;;;;;;-0.24;72.89;99955.98;2074895;85;31516;-68
2022/12/13 09:28:08;;;;;;;25.17;13.32;;;;;;;-0.23;72.87;99955.53;2075093;85;33770;-73
2022/12/13 09:31:16;;;;;;;21.82;12.60;;;;;;;-0.24;72.66;99954.67;2046032;86;29355;-74
2022/12/13 09:34:18;;;;;;;23.25;13.88;;;;;;;-0.31;72.40;99957.81;2055505;85;27770;-72
2022/12/13 09:37:20;;;;;;;22.58;13.48;;;;;;;-0.36;72.37;99956.98;2045729;86;29949;-68
2022/12/13 09:40:25;;;;;;;20.72;11.78;;;;;;;-0.38;72.27;99956.13;2058097;86;31441;-66
2022/12/13 09:43:32;;;;;;;20.05;11.43;;;;;;;-0.37;72.44;99955.70;2042254;86;34116;-72
2022/12/13 09:46:39;;;;;;;20.80;12.18;;;;;;;-0.37;72.05;99953.06;2008478;87;30440;-74
2022/12/13 09:49:43;;;;;;;20.77;12.80;;;;;;;-0.38;71.89;99950.86;1991310;88;27745;-59
2022/12/13 09:52:46;;;;;;;21.70;12.90;;;;;;;-0.40;71.71;99950.00;2031763;87;28694;-60
2022/12/13 09:55:51;;;;;;;26.02;13.15;;;;;;;-0.37;71.78;99953.92;2046203;87;31585;-62
2022/12/13 09:58:55;;;;;;;37.48;18.02;;;;;;;-0.34;71.82;99947.31;2045893;87;33032;-61
2022/12/13 10:02:03;;;;;;;39.47;19.17;;;;;;;-0.23;71.75;99955.53;2046155;87;29340;-61
2022/12/13 10:05:31;;;;;;;24.77;13.90;;;;;;;-0.06;72.48;99944.82;2045360;86;27708;-60
2022/12/13 10:08:36;;;;;;;19.87;12.88;;;;;;;0.21;72.34;99950.20;2045781;87;28679;-60
2022/12/13 10:11:51;;;;;;;23.42;13.88;;;;;;;0.38;71.92;99951.73;2038771;87;31914;-62
2022/12/13 10:14:58;;;;;;;22.62;12.20;;;;;;;0.51;71.89;99955.05;2039405;87;33022;-61
2022/12/13 10:18:02;;;;;;;20.80;11.70;;;;;;;0.62;71.33;99954.48;2039576;87;29775;-62
2022/12/13 10:21:17;;;;;;;21.10;13.13;;;;;;;0.69;71.36;99949.52;2039797;87;27618;-62
2022/12/13 10:24:29;;;;;;;18.75;11.57;;;;;;;0.74;70.93;99945.06;2022178;87;29386;-61
2022/12/13 10:27:41;;;;;;;27.73;14.43;;;;;;;0.84;71.33;99946.23;2039473;87;31049;-60
2022/12/13 10:30:44;;;;;;;21.30;11.55;;;;;;;0.95;71.11;99947.38;2039488;87;33737;-62
2022/12/13 10:33:54;;;;;;;18.98;11.03;;;;;;;1.03;70.90;99944.19;2039549;87;30604;-63
2022/12/13 10:36:56;;;;;;;16.73;10.08;;;;;;;1.11;70.59;99942.74;2039272;86;27710;-61
2022/12/13 10:39:58;;;;;;;16.95;10.88;;;;;;;1.14;70.40;99944.02;2039469;87;29079;-62
2022/12/13 10:43:16;;;;;;;18.25;12.25;;;;;;;1.23;70.60;99945.17;2039464;87;31094;-63
2022/12/13 10:46:19;;;;;;;21.93;12.50;;;;;;;1.29;70.57;99938.91;2036863;87;33000;-62
2022/12/13 10:49:24;;;;;;;18.50;11.57;;;;;;;1.34;70.12;99934.43;2039456;87;29350;-63
2022/12/13 10:52:41;;;;;;;16.95;10.40;;;;;;;1.44;69.98;99936.00;2039685;87;27657;-63
2022/12/13 10:55:42;;;;;;;20.25;10.90;;;;;;;1.52;70.36;99937.17;2017354;87;28699;-63
2022/12/13 10:58:46;;;;;;;16.50;10.45;;;;;;;1.59;69.86;99941.45;2039447;87;31542;-63
2022/12/13 11:01:48;;;;;;;15.40;9.63;;;;;;;1.60;69.62;99939.23;2017122;87;34130;-61
2022/12/13 11:04:51;;;;;;;16.70;10.50;;;;;;;1.59;69.29;99936.17;2039413;87;29717;-63
2022/12/13 11:07:56;;;;;;;16.07;10.25;;;;;;;1.59;69.65;99940.14;2039633;87;27646;-63
2022/12/13 11:11:03;;;;;;;17.48;10.38;;;;;;;1.59;69.40;99932.22;2005504;88;29087;-63
2022/12/13 11:14:09;;;;;;;17.80;9.65;;;;;;;1.60;69.16;99924.72;2006361;88;31018;-62
2022/12/13 11:17:16;;;;;;;19.17;11.10;;;;;;;1.65;69.33;99925.95;1989809;88;34290;-60
2022/12/13 11:20:25;;;;;;;19.30;11.25;;;;;;;1.73;69.19;99928.00;1974984;90;29361;-60
2022/12/13 11:23:36;;;;;;;16.70;10.32;;;;;;;1.85;69.46;99924.70;1975352;90;28079;-61
2022/12/13 11:26:41;;;;;;;16.45;9.58;;;;;;;2.01;69.44;99918.63;1974985;90;28776;-61
2022/12/13 11:29:50;;;;;;;20.32;12.35;;;;;;;2.16;68.96;99916.98;1975033;89;32445;-61
2022/12/13 11:33:09;;;;;;;16.00;10.10;;;;;;;2.25;68.81;99916.81;1974929;89;32980;-61
2022/12/13 11:36:37;;;;;;;25.15;14.23;;;;;;;2.32;68.24;99919.33;1956301;90;29010;-62
2022/12/13 11:39:49;;;;;;;20.65;12.07;;;;;;;2.29;68.20;99917.60;1956648;91;27758;-61
2022/12/13 11:42:56;;;;;;;17.92;10.63;;;;;;;2.21;67.10;99908.52;1956155;91;29948;-62
2022/12/13 11:46:01;;;;;;;17.17;9.25;;;;;;;2.07;67.14;99919.38;1955391;91;31891;-60
2022/12/13 11:49:19;;;;;;;17.45;10.48;;;;;;;1.97;67.31;99918.72;1956768;91;33761;-63
2022/12/13 11:52:32;;;;;;;14.95;8.95;;;;;;;1.89;67.12;99916.67;1953229;91;30503;-62
2022/12/13 11:55:44;;;;;;;19.55;10.98;;;;;;;1.80;66.86;99915.08;1956086;91;27861;-61
2022/12/13 11:59:00;;;;;;;38.53;17.60;;;;;;;1.67;66.48;99928.11;1956291;91;28704;-61
2022/12/13 12:02:35;;;;;;;51.33;20.72;;;;;;;1.50;66.89;99923.13;1956560;91;31126;-61
2022/12/13 12:05:37;;;;;;;23.33;12.50;;;;;;;1.41;66.61;99923.31;1956446;91;33655;-62
2022/12/13 12:08:45;;;;;;;19.20;10.03;;;;;;;1.32;66.64;99924.34;1956276;91;30663;-62
2022/12/13 12:11:56;;;;;;;32.30;13.83;;;;;;;1.24;66.56;99922.31;1975179;88;28348;-61
2022/12/13 12:15:34;;;;;;;26.60;12.40;;;;;;;1.14;66.50;99918.95;2006669;88;28999;-61
2022/12/13 12:18:37;;;;;;;17.42;10.15;;;;;;;1.08;66.31;99927.81;1975533;90;31438;-60
2022/12/13 12:22:02;;;;;;;15.68;9.23;;;;;;;1.06;66.57;99927.86;1975120;90;32989;-61
2022/12/13 12:25:27;;;;;;;16.52;9.33;;;;;;;1.11;66.50;99936.15;1974958;89;30563;-61
2022/12/13 12:29:03;;;;;;;13.20;7.80;;;;;;;1.16;66.40;99930.36;1975236;89;28330;-62
2022/12/13 12:32:25;;;;;;;13.48;8.53;;;;;;;1.24;66.40;99927.59;1975385;89;29099;-62
2022/12/13 12:36:22;;;;;;;17.00;10.08;;;;;;;1.23;66.09;99930.66;1975262;90;31520;-62
2022/12/13 12:39:50;;;;;;;13.15;7.75;;;;;;;1.19;66.38;99935.13;1974842;89;33846;-63
2022/12/13 12:43:21;;;;;;;12.28;7.83;;;;;;;1.22;66.51;99946.06;1974878;89;30625;-62
2022/12/13 12:46:34;;;;;;;16.62;9.15;;;;;;;1.26;66.73;99950.40;1988422;87;27756;-61
2022/12/13 12:49:56;;;;;;;14.83;8.78;;;;;;;1.26;66.38;99939.84;2004889;88;29189;-61
2022/12/13 12:53:14;;;;;;;14.35;8.83;;;;;;;1.25;66.41;99937.21;1940094;91;31952;-62
2022/12/13 12:56:48;;;;;;;17.85;9.93;;;;;;;1.22;65.98;99931.55;1952453;91;33025;-61
2022/12/13 13:00:18;;;;;;;14.98;8.70;;;;;;;1.12;65.70;99934.79;1915076;92;29533;-61
2022/12/13 13:03:26;;;;;;;12.47;8.23;;;;;;;0.97;65.42;99930.66;1915135;92;27826;-61
2022/12/13 13:06:33;;;;;;;23.42;12.43;;;;;;;0.79;65.09;99939.71;1915069;92;28689;-62
2022/12/13 13:09:35;;;;;;;27.15;11.45;;;;;;;0.67;65.36;99939.91;1914907;92;31069;-61
2022/12/13 13:12:40;;;;;;;24.90;11.43;;;;;;;0.54;65.35;99941.41;1909758;93;33027;-63
2022/12/13 13:15:55;;;;;;;27.50;11.85;;;;;;;0.45;65.62;99944.16;1920081;91;37887;-64
2022/12/13 13:19:03;;;;;;;37.90;17.15;;;;;;;0.30;65.15;99947.89;1883923;94;27969;-62
2022/12/13 13:22:27;;;;;;;44.48;18.20;;;;;;;0.17;65.55;99945.00;1882029;94;30094;-62
2022/12/13 13:25:32;;;;;;;20.57;9.35;;;;;;;0.04;65.39;99939.86;1889091;91;31921;-62
2022/12/13 13:28:34;;;;;;;17.40;9.78;;;;;;;-0.11;65.27;99939.62;1939918;90;34200;-62
2022/12/13 13:32:10;;;;;;;16.55;10.13;;;;;;;-0.22;65.35;99940.16;1973274;90;30656;-63
2022/12/13 13:35:36;;;;;;;16.65;9.25;;;;;;;-0.31;65.41;99946.40;1974146;89;27852;-62
2022/12/13 13:38:52;;;;;;;15.83;11.00;;;;;;;-0.44;65.60;99947.00;1979365;89;29090;-62
2022/12/13 13:42:17;;;;;;;19.52;12.33;;;;;;;-0.53;65.82;99954.96;1979424;89;30887;-63
2022/12/13 13:45:23;;;;;;;18.85;11.48;;;;;;;-0.59;66.04;99957.67;1979347;89;47420;-62
2022/12/13 13:48:44;;;;;;;;;;;;;;;-0.67;66.15;99965.18;1981568;90;30538;-62
2022/12/13 13:52:21;;;;;;;16.82;9.95;;;;;;;-0.74;66.26;99962.62;1979223;90;27740;-65
2022/12/13 13:56:05;;;;;;;29.15;14.40;;;;;;;-0.82;66.40;99965.31;1977592;90;28736;-64
2022/12/13 13:59:44;;;;;;;31.25;15.08;;;;;;;-0.89;66.38;99981.59;2005266;88;32043;-63
2022/12/13 14:03:11;;;;;;;26.90;14.23;;;;;;;-0.90;66.65;99983.78;2006707;87;34112;-60
2022/12/13 14:06:54;;;;;;;40.88;16.95;;;;;;;-0.86;66.75;99981.57;2005636;88;30528;-63
2022/12/13 14:10:29;;;;;;;37.00;16.35;;;;;;;-0.83;66.79;99981.98;2033377;87;27778;-63
2022/12/13 14:14:03;;;;;;;28.92;14.33;;;;;;;-0.80;66.88;99989.84;1960194;90;29141;-63
2022/12/13 14:17:31;;;;;;;21.33;11.25;;;;;;;-0.77;67.13;99989.38;1981609;89;31413;-62
2022/12/13 14:21:23;;;;;;;17.17;10.35;;;;;;;-0.75;66.92;99989.80;1960325;90;33832;-62
2022/12/13 14:24:46;;;;;;;12.37;9.08;;;;;;;-0.78;66.93;99986.77;1981284;89;30507;-62
2022/12/13 14:27:58;;;;;;;17.32;9.58;;;;;;;-0.86;66.68;99985.94;1980646;89;27854;-61
2022/12/13 14:31:00;;;;;;;16.77;10.15;;;;;;;-0.93;66.70;99988.64;1981371;89;29878;-65
2022/12/13 14:34:03;;;;;;;18.23;9.93;;;;;;;-1.02;66.57;99994.41;1952342;90;31415;-63
2022/12/13 14:37:16;;;;;;;21.33;10.98;;;;;;;-1.12;66.46;99992.27;1980029;89;33680;-62